Time;durP1;ratioP1;P1;durP2;ratioP2;P2;SDS_P1;SDS_P2;PMS_P1;PMS_P2;Temp;Humidity;BMP_temperature;BMP_pressure;BME280_temperature;BME280_humidity;BME280_pressure;Samples;Min_cycle;Max_cycle;Signal;HPM_P1;HPM_P2
2023/07/27 00:01:58;;;;;;;9.02;5.78;;;;;;;20.68;100.00;96768.69;5054623;28;20025;-73
2023/07/27 00:04:24;;;;;;;14.73;6.03;;;;;;;20.71;100.00;96759.31;5054739;28;20052;-74
2023/07/27 00:06:50;;;;;;;9.13;5.88;;;;;;;20.70;100.00;96765.81;5072388;28;20050;-74
2023/07/27 00:09:15;;;;;;;12.52;5.97;;;;;;;20.76;100.00;96774.09;5072636;28;20032;-74
2023/07/27 00:11:41;;;;;;;12.50;6.28;;;;;;;20.90;100.00;96784.22;5037935;28;20024;-74
2023/07/27 00:14:06;;;;;;;9.93;5.68;;;;;;;20.86;100.00;96773.84;5054204;28;20059;-74
2023/07/27 00:16:32;;;;;;;8.00;5.43;;;;;;;20.85;100.00;96781.19;5072199;28;20028;-73
2023/07/27 00:18:58;;;;;;;8.27;5.40;;;;;;;20.81;100.00;96788.00;5072033;28;20036;-73
2023/07/27 00:21:23;;;;;;;9.60;5.55;;;;;;;20.79;100.00;96784.63;5054267;28;20017;-73
2023/07/27 00:23:49;;;;;;;9.15;5.60;;;;;;;20.74;100.00;96784.28;5071966;28;20111;-74
2023/07/27 00:26:14;;;;;;;11.27;6.00;;;;;;;20.75;100.00;96791.41;5072086;28;20052;-75
2023/07/27 00:28:40;;;;;;;7.75;4.72;;;;;;;20.70;100.00;96785.69;5054116;28;20020;-74
2023/07/27 00:31:05;;;;;;;9.65;5.13;;;;;;;20.70;100.00;96779.38;5071708;28;20020;-74
2023/07/27 00:33:31;;;;;;;6.03;4.57;;;;;;;20.69;100.00;96783.97;5070746;28;20047;-74
2023/07/27 00:35:58;;;;;;;7.90;4.72;;;;;;;20.64;100.00;96780.91;5053825;28;20051;-74
2023/07/27 00:38:23;;;;;;;5.70;4.90;;;;;;;20.59;100.00;96779.75;5053623;28;20404;-74
2023/07/27 00:40:49;;;;;;;7.15;4.85;;;;;;;20.67;100.00;96777.88;5053881;28;20036;-75
2023/07/27 00:43:15;;;;;;;7.57;4.40;;;;;;;20.57;100.00;96774.50;5053605;28;20035;-74
2023/07/27 00:45:40;;;;;;;9.43;4.10;;;;;;;20.44;100.00;96774.22;5053850;28;20033;-74
2023/07/27 00:48:06;;;;;;;7.57;4.00;;;;;;;20.40;100.00;96759.28;5053583;28;20503;-74
2023/07/27 00:50:40;;;;;;;4.85;4.00;;;;;;;20.43;100.00;96757.06;5053224;28;20040;-75
2023/07/27 00:53:08;;;;;;;7.75;4.03;;;;;;;20.38;100.00;96742.31;5053585;28;20047;-74
2023/07/27 00:55:34;;;;;;;4.10;3.70;;;;;;;20.41;100.00;96734.66;5071613;28;20025;-75
2023/07/27 00:58:00;;;;;;;4.65;3.67;;;;;;;20.39;100.00;96736.72;5053436;28;20028;-75
2023/07/27 01:00:27;;;;;;;5.13;3.88;;;;;;;20.29;100.00;96752.38;5071403;28;20028;-75
2023/07/27 01:02:53;;;;;;;7.15;3.65;;;;;;;20.34;100.00;96746.38;5036823;28;20519;-75
2023/07/27 01:05:19;;;;;;;11.73;3.53;;;;;;;20.33;100.00;96756.41;5053511;28;20035;-75
2023/07/27 01:07:45;;;;;;;4.20;3.50;;;;;;;20.40;100.00;96751.13;5071591;28;20449;-75
2023/07/27 01:10:11;;;;;;;4.28;3.53;;;;;;;20.50;100.00;96755.34;5053106;28;20078;-75
2023/07/27 01:12:58;;;;;;;7.03;3.63;;;;;;;20.62;100.00;96752.22;5053289;28;20095;-74
2023/07/27 01:15:26;;;;;;;5.82;3.50;;;;;;;20.64;100.00;96761.06;5071263;28;20450;-75
2023/07/27 01:18:08;;;;;;;5.07;3.20;;;;;;;20.51;100.00;96757.06;5053371;28;20082;-74
2023/07/27 01:20:43;;;;;;;3.92;3.38;;;;;;;20.55;100.00;96746.66;5036580;28;20028;-75
2023/07/27 01:23:33;;;;;;;4.85;3.17;;;;;;;20.49;100.00;96750.91;5053313;28;20040;-75
2023/07/27 01:26:23;;;;;;;5.20;3.55;;;;;;;20.49;100.00;96747.34;5053183;28;20365;-74
2023/07/27 01:29:01;;;;;;;3.92;3.13;;;;;;;20.61;100.00;96762.25;5052996;28;20043;-75
2023/07/27 01:31:41;;;;;;;4.13;3.08;;;;;;;20.51;100.00;96757.06;5053141;28;20039;-75
2023/07/27 01:34:14;;;;;;;4.85;2.90;;;;;;;20.54;100.00;96766.72;5053920;28;20051;-75
2023/07/27 01:36:40;;;;;;;7.30;3.15;;;;;;;20.56;100.00;96764.66;5052866;28;20040;-74
2023/07/27 01:39:08;;;;;;;5.35;3.55;;;;;;;20.48;100.00;96761.97;5052861;28;20055;-74
2023/07/27 01:41:36;;;;;;;26.15;4.20;;;;;;;20.48;100.00;96759.25;5036294;28;20170;-74
2023/07/27 01:44:02;;;;;;;4.40;2.92;;;;;;;20.46;100.00;96772.16;5053082;28;20034;-73
2023/07/27 01:46:30;;;;;;;4.65;2.58;;;;;;;20.46;100.00;96759.41;5070818;28;20113;-77
2023/07/27 01:48:57;;;;;;;3.40;2.63;;;;;;;20.45;100.00;96746.03;5052097;28;20387;-77
2023/07/27 01:51:23;;;;;;;2.78;2.38;;;;;;;20.48;100.00;96756.56;5052656;28;20108;-78
2023/07/27 01:53:49;;;;;;;7.15;2.63;;;;;;;20.48;100.00;96756.56;5047574;28;20021;-78
2023/07/27 01:56:15;;;;;;;5.53;2.63;;;;;;;20.51;100.00;96764.34;5052987;28;20059;-78
2023/07/27 01:58:41;;;;;;;4.50;2.63;;;;;;;20.45;100.00;96767.78;5052720;28;20088;-77
2023/07/27 02:01:07;;;;;;;3.45;2.35;;;;;;;20.45;100.00;96759.63;5070733;28;20028;-77
2023/07/27 02:03:33;;;;;;;4.25;2.40;;;;;;;20.41;100.00;96752.81;5052701;28;20492;-77
2023/07/27 02:06:00;;;;;;;2.83;2.08;;;;;;;20.38;100.00;96764.03;5053218;28;20031;-77
2023/07/27 02:08:26;;;;;;;3.28;1.92;;;;;;;20.44;100.00;96758.75;5036850;28;20033;-78
2023/07/27 02:10:55;;;;;;;6.35;2.50;;;;;;;20.41;100.00;96767.25;5052515;28;20450;-79
2023/07/27 02:13:38;;;;;;;6.13;2.50;;;;;;;20.44;100.00;96750.63;5053130;28;20480;-79
2023/07/27 02:16:26;;;;;;;5.30;2.30;;;;;;;20.41;100.00;96756.41;5064474;28;20453;-79
2023/07/27 02:18:53;;;;;;;7.07;2.10;;;;;;;20.42;100.00;96776.25;5071000;28;20027;-78
2023/07/27 02:21:20;;;;;;;2.75;2.22;;;;;;;20.43;100.00;96778.78;5053557;28;20036;-78
2023/07/27 02:23:45;;;;;;;4.22;2.17;;;;;;;20.40;100.00;96786.44;5052510;28;20415;-79
2023/07/27 02:26:11;;;;;;;2.50;2.00;;;;;;;20.41;100.00;96791.72;5052447;28;20024;-79
2023/07/27 02:28:36;;;;;;;2.15;1.90;;;;;;;20.37;100.00;96806.66;5070013;28;20114;-84
2023/07/27 02:31:02;;;;;;;4.38;2.42;;;;;;;20.38;100.00;96804.78;5070985;28;20032;-77
2023/07/27 02:33:27;;;;;;;4.07;2.20;;;;;;;20.44;100.00;96813.09;5070451;28;20107;-82
2023/07/27 02:35:55;;;;;;;8.68;5.15;;;;;;;20.46;100.00;96812.91;5056550;28;20056;-76
2023/07/27 02:38:20;;;;;;;10.18;6.43;;;;;;;20.41;100.00;96828.91;5078452;28;20484;-76
2023/07/27 02:40:46;;;;;;;10.88;7.30;;;;;;;20.44;100.00;96825.84;5052221;28;20017;-77
2023/07/27 02:43:11;;;;;;;3.60;2.58;;;;;;;20.38;100.00;96808.38;5035595;28;20060;-77
2023/07/27 02:45:37;;;;;;;4.90;2.20;;;;;;;20.35;100.00;96818.72;5052421;28;20040;-78
2023/07/27 02:48:02;;;;;;;3.13;1.95;;;;;;;20.42;100.00;96819.75;5070295;28;20411;-78
2023/07/27 02:50:28;;;;;;;9.40;2.55;;;;;;;20.36;100.00;96820.44;5051851;28;20031;-77
2023/07/27 02:52:53;;;;;;;6.68;2.33;;;;;;;20.37;100.00;96814.81;5052684;28;20071;-77
2023/07/27 02:55:19;;;;;;;6.65;2.35;;;;;;;20.37;100.00;96809.38;5069984;28;20036;-78
2023/07/27 02:57:44;;;;;;;4.50;2.05;;;;;;;20.40;100.00;96830.75;5051951;28;20111;-78
2023/07/27 03:00:10;;;;;;;9.32;2.83;;;;;;;20.39;100.00;96836.38;5070768;28;20059;-77
2023/07/27 03:02:36;;;;;;;11.00;3.97;;;;;;;20.42;100.00;96849.63;5055644;28;20029;-78
2023/07/27 03:05:04;;;;;;;13.00;4.30;;;;;;;20.38;100.00;96845.56;5055668;28;20032;-78
2023/07/27 03:07:29;;;;;;;6.45;3.03;;;;;;;20.34;100.00;96833.31;5055567;28;20044;-78
2023/07/27 03:09:55;;;;;;;6.05;2.72;;;;;;;20.36;100.00;96834.00;5073765;28;20025;-78
2023/07/27 03:12:20;;;;;;;6.60;2.72;;;;;;;20.40;100.00;96840.78;5073406;28;20385;-77
2023/07/27 03:14:46;;;;;;;6.07;2.95;;;;;;;20.33;100.00;96842.50;5073661;28;20472;-78
2023/07/27 03:17:11;;;;;;;3.72;2.30;;;;;;;20.31;100.00;96841.81;5073635;28;20468;-78
2023/07/27 03:19:37;;;;;;;9.98;3.05;;;;;;;20.30;100.00;96846.41;5055325;28;20027;-78
2023/07/27 03:22:02;;;;;;;7.00;3.05;;;;;;;20.25;100.00;96840.59;5073335;28;21514;-78
2023/07/27 03:24:28;;;;;;;8.70;2.83;;;;;;;20.23;100.00;96837.22;5055355;28;20479;-77
2023/07/27 03:26:54;;;;;;;3.72;2.30;;;;;;;20.20;100.00;96850.31;5073453;28;20028;-78
2023/07/27 03:29:19;;;;;;;3.90;2.10;;;;;;;20.16;100.00;96855.22;5073201;28;20029;-77
2023/07/27 03:31:45;;;;;;;4.97;1.98;;;;;;;20.20;100.00;96863.88;5073876;28;20472;-80
2023/07/27 03:34:10;;;;;;;5.43;2.63;;;;;;;20.20;100.00;96858.44;5073134;28;20111;-78
2023/07/27 03:36:36;;;;;;;4.45;2.20;;;;;;;20.21;100.00;96862.88;5073068;28;20131;-78
2023/07/27 03:39:01;;;;;;;4.93;2.10;;;;;;;20.25;100.00;96859.63;5055213;28;20032;-78
2023/07/27 03:41:27;;;;;;;4.38;2.28;;;;;;;20.24;100.00;96866.06;5072891;28;20040;-78
2023/07/27 03:43:52;;;;;;;3.15;2.00;;;;;;;20.28;100.00;96872.03;5074012;28;20032;-78
2023/07/27 03:46:18;;;;;;;6.68;2.58;;;;;;;20.29;100.00;96881.91;5055182;28;20028;-78
2023/07/27 03:48:46;;;;;;;4.32;2.45;;;;;;;20.26;100.00;96884.97;5054858;28;20033;-78
2023/07/27 03:51:12;;;;;;;8.45;2.20;;;;;;;20.24;100.00;96882.38;5038245;28;20044;-78
2023/07/27 03:53:38;;;;;;;7.22;2.75;;;;;;;20.29;100.00;96881.91;5054896;28;20541;-78
2023/07/27 03:56:04;;;;;;;6.95;2.42;;;;;;;20.28;100.00;96882.91;5054927;28;20039;-78
2023/07/27 03:58:30;;;;;;;3.13;2.15;;;;;;;20.27;100.00;96879.34;5054963;28;20028;-77
2023/07/27 04:00:55;;;;;;;3.63;1.85;;;;;;;20.27;100.00;96871.19;5072756;28;20028;-78
2023/07/27 04:03:21;;;;;;;5.00;2.33;;;;;;;20.38;100.00;96875.44;5054704;28;20025;-78
2023/07/27 04:05:46;;;;;;;7.28;2.28;;;;;;;20.32;100.00;96882.41;5054603;28;20024;-78
2023/07/27 04:08:12;;;;;;;5.68;2.47;;;;;;;20.36;100.00;96886.50;5037856;28;20047;-78
2023/07/27 04:10:39;;;;;;;5.80;2.25;;;;;;;20.39;100.00;96888.00;5054445;28;20408;-77
2023/07/27 04:13:05;;;;;;;5.90;3.20;;;;;;;20.39;100.00;96888.00;5053570;28;20016;-78
2023/07/27 04:15:30;;;;;;;9.63;3.90;;;;;;;20.30;100.00;96898.00;5054529;28;20032;-77
2023/07/27 04:17:56;;;;;;;12.40;3.30;;;;;;;20.26;100.00;96890.38;5054169;28;20035;-78
2023/07/27 04:20:21;;;;;;;12.13;2.50;;;;;;;20.14;100.00;96900.72;5072252;28;20035;-79
2023/07/27 04:22:47;;;;;;;12.18;3.60;;;;;;;20.16;100.00;96908.69;5054149;28;20017;-78
2023/07/27 04:25:12;;;;;;;9.18;3.17;;;;;;;20.17;100.00;96918.53;5054667;28;20510;-79
2023/07/27 04:27:38;;;;;;;7.03;3.25;;;;;;;20.15;100.00;96924.13;5071943;28;20031;-78
2023/07/27 04:30:04;;;;;;;12.52;3.50;;;;;;;20.24;100.00;96933.97;5072049;28;20112;-77
2023/07/27 04:32:29;;;;;;;6.38;2.75;;;;;;;20.29;100.00;96937.06;5071660;28;20070;-76
2023/07/27 04:34:55;;;;;;;5.95;2.10;;;;;;;20.26;100.00;96939.28;5071645;28;20032;-77
2023/07/27 04:37:21;;;;;;;11.77;3.65;;;;;;;20.36;100.00;96940.81;5053839;28;20020;-77
2023/07/27 04:39:47;;;;;;;5.13;3.17;;;;;;;20.29;100.00;96949.81;5071669;28;20023;-77
2023/07/27 04:42:12;;;;;;;7.13;2.97;;;;;;;20.38;100.00;96952.34;5071594;28;20029;-77
2023/07/27 04:44:38;;;;;;;7.63;3.08;;;;;;;20.50;100.00;96959.16;5053982;28;20086;-77
2023/07/27 04:47:04;;;;;;;7.40;3.15;;;;;;;20.52;100.00;96954.38;5071747;28;20028;-77
2023/07/27 04:49:29;;;;;;;6.85;3.00;;;;;;;20.72;100.00;96970.31;5071618;28;20551;-78
2023/07/27 04:51:55;;;;;;;9.23;3.20;;;;;;;20.82;100.00;96966.41;5053687;28;20086;-78
2023/07/27 04:54:20;;;;;;;7.40;2.78;;;;;;;20.72;100.00;96963.03;5071681;28;20450;-78
2023/07/27 04:56:46;;;;;;;9.38;2.97;;;;;;;20.85;100.00;96976.09;5071405;28;20059;-78
2023/07/27 04:59:11;;;;;;;7.43;2.50;;;;;;;21.01;100.00;96960.56;5071481;28;20490;-78
2023/07/27 05:01:36;;;;;;;18.05;2.90;;;;;;;21.08;100.00;96958.00;5071481;28;20025;-76
2023/07/27 05:04:02;;;;;;;4.05;2.35;;;;;;;21.32;100.00;96962.56;5071641;28;20499;-77
2023/07/27 05:06:28;;;;;;;8.57;2.80;;;;;;;21.49;100.00;96969.63;5071374;28;20043;-77
2023/07/27 05:08:53;;;;;;;5.38;2.60;;;;;;;21.60;100.00;96961.91;5071277;28;20462;-77
2023/07/27 05:11:19;;;;;;;10.88;2.22;;;;;;;21.52;100.00;96974.72;5071248;28;20028;-76
2023/07/27 05:13:44;;;;;;;6.10;2.70;;;;;;;21.69;100.00;96972.78;5053175;28;20463;-77
2023/07/27 05:16:10;;;;;;;8.40;3.00;;;;;;;21.78;100.00;96977.16;5071171;28;20059;-77
2023/07/27 05:18:35;;;;;;;7.50;3.05;;;;;;;21.57;100.00;96972.31;5071277;28;20416;-78
2023/07/27 05:21:01;;;;;;;8.70;3.72;;;;;;;21.53;100.00;96976.44;5053314;28;20028;-78
2023/07/27 05:23:27;;;;;;;12.23;2.80;;;;;;;21.35;100.00;96984.00;5052827;28;20090;-78
2023/07/27 05:25:53;;;;;;;11.43;3.92;;;;;;;21.28;100.00;96983.84;5053230;28;20432;-77
2023/07/27 05:28:19;;;;;;;7.80;3.95;;;;;;;21.46;100.00;96992.63;5070968;28;20055;-78
2023/07/27 05:30:44;;;;;;;6.03;2.10;;;;;;;21.37;100.00;96984.66;5070938;28;20110;-77
2023/07/27 05:33:10;;;;;;;3.95;2.13;;;;;;;21.35;100.00;96989.44;5070777;28;20024;-76
2023/07/27 05:35:35;;;;;;;4.53;2.17;;;;;;;21.37;100.00;96981.94;5070812;28;20052;-78
2023/07/27 05:38:01;;;;;;;5.40;2.50;;;;;;;21.23;100.00;96990.81;5052818;28;20470;-77
2023/07/27 05:40:26;;;;;;;11.07;2.22;;;;;;;21.18;100.00;96990.50;5053126;28;20086;-78
2023/07/27 05:42:52;;;;;;;5.07;2.92;;;;;;;21.28;100.00;97002.03;5070941;28;20174;-78
2023/07/27 05:45:17;;;;;;;5.07;2.60;;;;;;;21.21;100.00;96992.84;5052924;28;20063;-77
2023/07/27 05:47:43;;;;;;;4.18;2.65;;;;;;;21.18;100.00;96999.50;5070613;28;20024;-78
2023/07/27 05:50:09;;;;;;;7.15;2.78;;;;;;;21.28;100.00;97000.16;5052995;28;20037;-78
2023/07/27 05:52:35;;;;;;;5.18;2.60;;;;;;;21.34;100.00;96999.47;5053029;28;20377;-78
2023/07/27 05:55:00;;;;;;;5.95;2.65;;;;;;;21.58;100.00;96996.66;5052708;28;20035;-77
2023/07/27 05:57:26;;;;;;;16.10;4.07;;;;;;;21.70;100.00;96991.66;5070702;28;20055;-78
2023/07/27 05:59:51;;;;;;;8.57;2.90;;;;;;;21.52;100.00;96972.84;5070848;28;20036;-78
2023/07/27 06:02:17;;;;;;;6.50;3.22;;;;;;;21.79;100.00;96998.75;5070157;28;20040;-78
2023/07/27 06:04:42;;;;;;;12.80;3.47;;;;;;;21.87;100.00;96992.44;5070395;28;20032;-77
2023/07/27 06:07:08;;;;;;;5.00;2.65;;;;;;;21.67;100.00;97007.47;5070535;28;20032;-76
2023/07/27 06:09:36;;;;;;;8.98;3.45;;;;;;;21.72;100.00;97003.19;5070646;28;20170;-77
2023/07/27 06:12:11;;;;;;;4.63;2.38;;;;;;;21.53;100.00;97009.91;5052924;28;20029;-78
2023/07/27 06:14:39;;;;;;;6.03;3.58;;;;;;;21.60;100.00;97012.78;5053196;28;20468;-77
2023/07/27 06:17:04;;;;;;;10.70;2.90;;;;;;;21.56;100.00;97016.91;5070528;28;20028;-77
2023/07/27 06:19:30;;;;;;;10.02;2.92;;;;;;;21.47;100.00;97017.97;5052367;28;20127;-77
2023/07/27 06:21:55;;;;;;;5.18;2.67;;;;;;;21.36;100.00;97011.00;5035996;28;20032;-77
2023/07/27 06:24:21;;;;;;;19.13;2.88;;;;;;;21.25;100.00;97016.84;5085596;28;20032;-76
2023/07/27 06:26:46;;;;;;;3.47;2.67;;;;;;;21.26;100.00;97009.50;5070601;28;20547;-77
2023/07/27 06:29:12;;;;;;;4.47;2.20;;;;;;;21.26;100.00;97009.50;5070628;28;20573;-78
2023/07/27 06:31:37;;;;;;;4.00;2.60;;;;;;;21.21;100.00;97010.03;5052204;28;20047;-78
2023/07/27 06:34:03;;;;;;;4.13;2.25;;;;;;;21.25;100.00;97000.50;5070617;28;20024;-77
2023/07/27 06:36:28;;;;;;;4.18;2.35;;;;;;;21.40;100.00;97003.34;5038551;28;20040;-78
2023/07/27 06:38:54;;;;;;;21.08;14.68;;;;;;;21.55;100.00;96996.16;5039819;28;20530;-78
2023/07/27 06:41:24;;;;;;;8.93;4.22;;;;;;;21.77;100.00;96994.50;5074140;28;20031;-77
2023/07/27 06:43:50;;;;;;;7.15;3.00;;;;;;;22.00;100.00;96979.06;5074314;28;20020;-77
2023/07/27 06:46:18;;;;;;;6.78;1.88;;;;;;;22.31;100.00;96969.00;5056362;28;20035;-77
2023/07/27 06:48:43;;;;;;;10.35;2.42;;;;;;;22.66;99.78;96962.09;5056575;28;20063;-77
2023/07/27 06:51:09;;;;;;;5.57;2.05;;;;;;;22.82;97.49;96961.09;5074517;28;20130;-79
2023/07/27 06:53:34;;;;;;;7.28;2.58;;;;;;;23.21;94.21;96965.28;5056383;28;20027;-77
2023/07/27 06:56:00;;;;;;;5.70;2.35;;;;;;;23.69;87.98;96961.13;5074284;28;20111;-77
2023/07/27 06:58:25;;;;;;;6.57;2.17;;;;;;;24.14;83.98;96945.50;5073678;28;20028;-76
2023/07/27 07:00:54;;;;;;;3.28;2.10;;;;;;;24.22;83.55;96962.59;5073817;28;20044;-78
2023/07/27 07:03:19;;;;;;;2.33;1.80;;;;;;;24.37;83.26;96951.59;5073773;28;20039;-78
2023/07/27 07:05:46;;;;;;;3.10;1.85;;;;;;;24.46;77.17;96953.16;5055641;28;20032;-78
2023/07/27 07:08:12;;;;;;;2.83;2.42;;;;;;;24.48;77.07;96956.56;5056071;28;20035;-78
2023/07/27 07:10:37;;;;;;;2.85;1.75;;;;;;;24.36;75.27;96949.09;5055819;28;20029;-78
2023/07/27 07:13:03;;;;;;;3.03;2.05;;;;;;;24.37;77.91;96953.50;5055264;28;20028;-77
2023/07/27 07:15:28;;;;;;;3.42;1.88;;;;;;;24.60;70.16;96946.78;5055642;28;20099;-78
2023/07/27 07:17:54;;;;;;;5.07;3.33;;;;;;;24.97;74.71;96956.59;5073190;28;20169;-77
2023/07/27 07:20:19;;;;;;;6.22;3.42;;;;;;;25.54;69.65;96947.28;5073964;28;20020;-77
2023/07/27 07:22:45;;;;;;;5.63;2.22;;;;;;;26.18;63.90;96940.38;5055800;28;20029;-76
2023/07/27 07:25:11;;;;;;;3.92;2.00;;;;;;;26.81;59.63;96929.94;5073389;28;20055;-77
2023/07/27 07:27:36;;;;;;;10.15;1.98;;;;;;;27.48;57.23;96926.88;5089009;28;20016;-77
2023/07/27 07:30:04;;;;;;;7.78;1.58;;;;;;;27.74;50.28;96917.72;5073238;28;20383;-77
2023/07/27 07:32:31;;;;;;;3.63;2.33;;;;;;;29.41;48.96;96921.66;5038991;28;20032;-77
2023/07/27 07:34:57;;;;;;;3.70;1.63;;;;;;;29.54;44.79;96900.25;5055254;28;20027;-77
2023/07/27 07:37:23;;;;;;;4.03;1.70;;;;;;;30.79;42.89;96889.44;5055315;28;20107;-78
2023/07/27 07:39:48;;;;;;;2.80;1.90;;;;;;;32.15;38.87;96898.94;5071725;28;20094;-77
2023/07/27 07:42:14;;;;;;;4.40;2.00;;;;;;;32.85;35.96;96876.44;5055005;28;20086;-78
2023/07/27 07:44:39;;;;;;;5.32;2.03;;;;;;;34.03;34.49;96875.09;5055091;28;20495;-78
2023/07/27 07:47:05;;;;;;;5.20;1.30;;;;;;;34.09;32.36;96849.91;5071332;28;20039;-78
2023/07/27 07:49:30;;;;;;;3.67;1.30;;;;;;;34.40;30.58;96851.09;5073088;28;20514;-78
2023/07/27 07:51:56;;;;;;;4.15;1.35;;;;;;;33.76;30.91;96850.09;5054375;28;20032;-78
2023/07/27 07:54:21;;;;;;;4.55;1.10;;;;;;;34.02;30.14;96848.47;5072868;28;20027;-78
2023/07/27 07:56:47;;;;;;;1.40;1.27;;;;;;;34.13;30.14;96850.28;5072614;28;20089;-78
2023/07/27 07:59:14;;;;;;;3.38;1.38;;;;;;;33.92;28.55;96845.56;5072732;28;20028;-77
2023/07/27 08:01:40;;;;;;;2.90;1.13;;;;;;;34.92;29.04;96847.72;5034951;28;20063;-77
2023/07/27 08:04:07;;;;;;;3.85;1.13;;;;;;;34.13;28.61;96844.72;5072733;28;20029;-79
2023/07/27 08:06:33;;;;;;;3.17;1.50;;;;;;;35.15;28.09;96850.16;5054691;28;20024;-78
2023/07/27 08:08:58;;;;;;;2.20;1.00;;;;;;;35.85;27.32;96847.78;5072239;28;20097;-78
2023/07/27 08:11:24;;;;;;;2.45;1.13;;;;;;;35.95;27.07;96849.78;5054647;28;20035;-78
2023/07/27 08:13:49;;;;;;;1.88;1.10;;;;;;;35.69;26.09;96853.53;5037506;28;20024;-79
2023/07/27 08:16:15;;;;;;;4.05;1.48;;;;;;;35.76;26.00;96849.41;5072559;28;20027;-78
2023/07/27 08:18:40;;;;;;;2.65;1.15;;;;;;;36.01;25.98;96856.19;5087603;28;20047;-78
2023/07/27 08:21:07;;;;;;;3.90;0.85;;;;;;;36.39;25.43;96847.44;5054376;28;20078;-78
2023/07/27 08:23:32;;;;;;;3.00;1.00;;;;;;;36.27;24.58;96838.50;5054325;28;20450;-79
2023/07/27 08:26:00;;;;;;;1.50;1.02;;;;;;;35.95;24.79;96835.00;5053990;28;20033;-79
2023/07/27 08:28:25;;;;;;;1.38;0.98;;;;;;;36.44;24.70;96839.06;5054343;28;20016;-78
2023/07/27 08:30:51;;;;;;;5.75;0.98;;;;;;;36.20;25.20;96851.84;5053972;28;20024;-78
2023/07/27 08:33:17;;;;;;;1.17;1.08;;;;;;;36.24;25.15;96844.63;5072006;28;20025;-78
2023/07/27 08:35:43;;;;;;;5.53;1.35;;;;;;;36.75;25.46;96856.69;5071645;28;20041;-79
2023/07/27 08:38:08;;;;;;;2.97;1.20;;;;;;;36.79;23.71;96841.09;5053926;28;20020;-79
2023/07/27 08:40:34;;;;;;;1.20;1.10;;;;;;;36.51;24.30;96847.16;5071798;28;20093;-80
2023/07/27 08:43:03;;;;;;;4.18;1.40;;;;;;;36.37;24.22;96844.91;5086885;28;20428;-80
2023/07/27 08:45:29;;;;;;;0.80;0.80;;;;;;;36.47;23.77;96852.44;5053838;28;20032;-80
2023/07/27 08:47:55;;;;;;;2.50;1.30;;;;;;;36.61;23.99;96850.81;5053817;28;20025;-79
2023/07/27 08:50:20;;;;;;;1.15;1.02;;;;;;;37.33;23.40;96853.34;5053809;28;20032;-79
2023/07/27 08:52:46;;;;;;;2.13;1.27;;;;;;;35.93;23.55;96842.81;5071472;28;20105;-79
2023/07/27 08:55:12;;;;;;;1.25;0.95;;;;;;;36.04;24.10;96841.72;5071066;28;20028;-80
2023/07/27 08:57:38;;;;;;;2.70;1.30;;;;;;;36.86;24.47;96863.94;5071191;28;20032;-79
2023/07/27 09:00:04;;;;;;;1.13;1.02;;;;;;;37.28;23.77;96855.31;5070980;28;20115;-79
2023/07/27 09:02:29;;;;;;;5.65;1.08;;;;;;;37.62;23.73;96856.38;5071533;28;20468;-79
2023/07/27 09:04:55;;;;;;;7.00;2.40;;;;;;;38.28;23.77;96858.91;5053349;28;20020;-79
2023/07/27 09:07:20;;;;;;;6.20;1.20;;;;;;;38.63;23.14;96867.13;5071215;28;20028;-79
2023/07/27 09:09:53;;;;;;;1.83;1.13;;;;;;;35.73;24.34;96860.25;5071429;28;20100;-79
2023/07/27 09:12:21;;;;;;;12.60;1.52;;;;;;;36.68;25.50;96872.84;5053064;28;20033;-79
2023/07/27 09:14:47;;;;;;;7.72;2.00;;;;;;;35.75;25.39;96863.59;5053833;28;20029;-79
2023/07/27 09:17:13;;;;;;;4.30;1.30;;;;;;;36.29;24.48;96853.81;5070932;28;20468;-79
2023/07/27 09:19:40;;;;;;;8.23;2.88;;;;;;;36.18;24.64;96859.66;5070882;28;20107;-79
2023/07/27 09:22:07;;;;;;;5.53;1.90;;;;;;;36.63;23.98;96864.50;5053085;28;20399;-78
2023/07/27 09:24:33;;;;;;;8.85;1.65;;;;;;;37.05;24.00;96864.25;5070831;28;20025;-79
2023/07/27 09:27:01;;;;;;;5.22;1.77;;;;;;;37.26;24.84;96863.94;5053049;28;20020;-78
2023/07/27 09:29:27;;;;;;;3.63;1.40;;;;;;;37.55;24.06;96867.00;5053085;28;20028;-78
2023/07/27 09:31:57;;;;;;;2.17;1.40;;;;;;;37.34;24.59;96862.56;5053266;28;20055;-79
2023/07/27 09:34:23;;;;;;;4.85;1.58;;;;;;;37.65;24.54;96875.38;5071049;28;20509;-79
2023/07/27 09:36:48;;;;;;;5.55;1.60;;;;;;;37.72;23.41;96881.47;5053030;28;20048;-79
2023/07/27 09:39:15;;;;;;;10.23;1.85;;;;;;;37.82;23.80;96886.19;5052801;28;20028;-79
2023/07/27 09:41:45;;;;;;;3.80;1.30;;;;;;;35.95;23.21;96872.06;5053198;28;20020;-79
2023/07/27 09:44:18;;;;;;;1.30;1.20;;;;;;;35.00;24.36;96875.03;5052625;28;20569;-79
2023/07/27 09:46:45;;;;;;;1.27;1.15;;;;;;;34.79;24.15;96874.03;5052675;28;20035;-79
2023/07/27 09:49:11;;;;;;;6.18;1.90;;;;;;;36.27;23.63;96883.88;5052449;28;20538;-79
2023/07/27 09:51:38;;;;;;;4.28;1.25;;;;;;;37.23;22.49;96880.41;5036052;28;20101;-79
2023/07/27 09:54:04;;;;;;;4.57;1.30;;;;;;;37.70;22.84;96886.50;5052683;28;20043;-78
2023/07/27 09:56:31;;;;;;;4.32;1.52;;;;;;;38.26;22.18;96880.72;5070599;28;20082;-79
2023/07/27 09:58:57;;;;;;;8.32;1.77;;;;;;;38.25;22.23;96888.28;5052912;28;20572;-79
2023/07/27 10:01:22;;;;;;;4.60;1.70;;;;;;;38.72;22.42;96887.75;5052403;28;20016;-79
2023/07/27 10:03:48;;;;;;;2.63;1.50;;;;;;;38.37;21.49;96876.78;5052761;28;20051;-78
2023/07/27 10:06:16;;;;;;;11.15;2.58;;;;;;;40.02;20.54;96868.06;5070176;28;20504;-78
2023/07/27 10:08:42;;;;;;;6.25;1.50;;;;;;;38.48;21.33;96878.41;5052675;28;20123;-79
2023/07/27 10:11:08;;;;;;;3.92;1.48;;;;;;;37.25;22.42;96881.00;5069492;28;20047;-79
2023/07/27 10:13:43;;;;;;;7.90;1.85;;;;;;;37.22;22.75;96890.78;5052328;28;20024;-79
2023/07/27 10:16:17;;;;;;;12.68;2.30;;;;;;;37.19;22.15;96879.31;5052518;28;20032;-79
2023/07/27 10:18:46;;;;;;;5.70;2.83;;;;;;;37.76;22.19;96885.38;5052498;28;20107;-81
2023/07/27 10:21:22;;;;;;;7.93;1.70;;;;;;;38.10;21.63;96879.13;5070296;28;20064;-81
2023/07/27 10:23:58;;;;;;;4.38;1.30;;;;;;;38.41;21.90;96880.69;5070544;28;20170;-81
2023/07/27 10:26:43;;;;;;;2.20;1.48;;;;;;;38.34;20.53;96869.78;5070713;28;20028;-80
2023/07/27 10:29:18;;;;;;;4.03;1.58;;;;;;;38.03;21.33;96895.34;5070337;28;20109;-81
2023/07/27 10:31:45;;;;;;;3.55;1.33;;;;;;;36.85;21.66;96877.06;5052587;28;20021;-82
2023/07/27 10:34:16;;;;;;;4.00;1.52;;;;;;;38.24;21.59;96880.19;5070476;28;20020;-81
2023/07/27 10:36:56;;;;;;;7.25;1.50;;;;;;;38.71;21.59;96885.22;5052519;28;20040;-82
2023/07/27 10:39:42;;;;;;;9.23;1.70;;;;;;;38.37;21.32;96873.97;5070265;28;20387;-80
2023/07/27 10:42:14;;;;;;;1.60;1.25;;;;;;;39.12;20.75;96864.25;5045078;28;20040;-82
2023/07/27 10:45:09;;;;;;;2.47;1.20;;;;;;;38.53;21.05;96864.38;5052159;28;20468;-81
2023/07/27 10:47:39;;;;;;;10.38;1.85;;;;;;;38.19;21.66;96866.22;5035091;28;20112;-81
2023/07/27 10:50:05;;;;;;;2.13;1.30;;;;;;;38.27;22.01;96879.63;5050372;28;20032;-81
2023/07/27 10:52:33;;;;;;;1.42;1.30;;;;;;;37.04;21.68;96862.59;5052008;28;20407;-81
2023/07/27 10:54:59;;;;;;;4.80;1.50;;;;;;;36.55;22.76;96860.28;5052250;28;20456;-81
2023/07/27 10:57:27;;;;;;;3.90;1.55;;;;;;;37.53;22.51;96866.47;5069472;28;20183;-81
2023/07/27 10:59:52;;;;;;;9.18;1.40;;;;;;;38.38;21.29;96847.72;5052057;28;20035;-82
2023/07/27 11:02:29;;;;;;;8.15;1.65;;;;;;;38.76;20.33;96846.91;5069947;28;20036;-76
2023/07/27 11:04:57;;;;;;;1.75;1.23;;;;;;;38.05;21.43;96842.84;5052314;28;20025;-79
2023/07/27 11:07:30;;;;;;;5.70;1.92;;;;;;;37.91;21.33;96857.41;5051755;28;20048;-78
2023/07/27 11:09:56;;;;;;;1.88;1.70;;;;;;;37.98;21.41;96855.16;5068561;28;20047;-78
2023/07/27 11:12:22;;;;;;;6.72;1.75;;;;;;;37.52;22.81;96861.16;5051723;28;20502;-78
2023/07/27 11:14:48;;;;;;;6.25;1.60;;;;;;;37.92;21.75;96861.06;5069823;28;20031;-79
2023/07/27 11:17:14;;;;;;;2.08;1.38;;;;;;;37.52;22.08;96862.00;5085453;28;20483;-79
2023/07/27 11:19:39;;;;;;;2.47;1.42;;;;;;;37.51;21.92;96859.47;5051871;28;20048;-78
2023/07/27 11:22:05;;;;;;;6.57;1.75;;;;;;;38.68;21.04;96846.66;5071989;28;20081;-79
2023/07/27 11:24:31;;;;;;;9.85;2.10;;;;;;;39.55;21.56;96857.69;5055223;28;20036;-80
2023/07/27 11:26:57;;;;;;;21.27;3.05;;;;;;;39.01;21.42;96862.63;5056019;28;20029;-78